Time;durP1;ratioP1;P1;durP2;ratioP2;P2;SDS_P1;SDS_P2;PMS_P1;PMS_P2;Temp;Humidity;BMP_temperature;BMP_pressure;BME280_temperature;BME280_humidity;BME280_pressure;Samples;Min_cycle;Max_cycle;Signal;HPM_P1;HPM_P2
2023/12/23 00:02:20;;;;;;;152.23;71.68;;;;;;;1.35;91.87;97835.47;5027374;28;20045;-88
2023/12/23 00:05:06;;;;;;;76.35;36.65;;;;;;;1.36;91.58;97824.78;5021721;28;20041;-89
2023/12/23 00:07:53;;;;;;;62.13;31.00;;;;;;;1.34;91.58;97811.06;5044085;28;20045;-88
2023/12/23 00:10:39;;;;;;;54.85;29.20;;;;;;;1.34;91.73;97818.91;5028998;28;20052;-85
2023/12/23 00:13:25;;;;;;;86.50;38.75;;;;;;;1.33;91.41;97806.84;5043393;28;20060;-88
2023/12/23 00:16:10;;;;;;;70.40;34.97;;;;;;;1.38;92.24;97809.66;5026968;28;20043;-88
2023/12/23 00:18:56;;;;;;;43.10;18.98;;;;;;;1.42;91.29;97799.59;5051305;28;20044;-87
2023/12/23 00:21:41;;;;;;;63.40;28.30;;;;;;;1.44;91.74;97813.25;5050230;28;20056;-83
2023/12/23 00:24:29;;;;;;;53.88;26.27;;;;;;;1.43;90.79;97826.56;5035286;28;20040;-84
2023/12/23 00:27:14;;;;;;;59.88;29.13;;;;;;;1.45;90.63;97827.19;5020488;28;20060;-87
2023/12/23 00:29:59;;;;;;;61.45;29.30;;;;;;;1.39;91.22;97823.56;5012268;28;20056;-85
2023/12/23 00:32:47;;;;;;;74.15;35.78;;;;;;;1.31;91.10;97823.75;5034843;28;20497;-86
2023/12/23 00:35:32;;;;;;;87.05;37.53;;;;;;;1.38;91.20;97791.34;5034505;28;20057;-85
2023/12/23 00:38:17;;;;;;;75.10;38.03;;;;;;;1.48;91.01;97796.16;5026315;28;20056;-86
2023/12/23 00:41:03;;;;;;;80.15;37.40;;;;;;;1.60;91.34;97786.66;5034840;28;20056;-82
2023/12/23 00:43:49;;;;;;;83.03;40.13;;;;;;;1.65;91.22;97783.38;5034534;28;20072;-83
2023/12/23 00:46:34;;;;;;;75.40;38.05;;;;;;;1.65;91.68;97786.00;5018820;28;20514;-82
2023/12/23 00:49:20;;;;;;;90.53;42.72;;;;;;;1.66;91.84;97763.25;5038152;28;20052;-84
2023/12/23 00:52:06;;;;;;;93.97;43.10;;;;;;;1.57;91.47;97768.72;5029049;28;20064;-84
2023/12/23 00:54:52;;;;;;;82.18;39.08;;;;;;;1.60;91.54;97768.31;5026448;28;20064;-83
2023/12/23 00:57:38;;;;;;;75.80;38.05;;;;;;;1.67;90.86;97765.66;5026056;28;20052;-86
2023/12/23 01:00:23;;;;;;;90.75;49.85;;;;;;;1.64;91.31;97746.94;5026222;28;20052;-85
2023/12/23 01:03:12;;;;;;;118.22;47.00;;;;;;;1.50;91.51;97739.13;5025826;28;20049;-83
2023/12/23 01:05:57;;;;;;;131.77;52.47;;;;;;;1.49;91.50;97745.38;5033884;28;20072;-86
2023/12/23 01:08:44;;;;;;;98.95;45.78;;;;;;;1.42;91.80;97749.06;5019142;28;20046;-82
2023/12/23 01:11:29;;;;;;;46.22;25.63;;;;;;;1.46;91.79;97756.28;5040818;28;20061;-84
2023/12/23 01:14:15;;;;;;;88.38;41.60;;;;;;;1.46;92.09;97731.91;5011782;28;20395;-86
2023/12/23 01:17:03;;;;;;;85.38;40.58;;;;;;;1.45;91.34;97746.03;5034031;28;20613;-88
2023/12/23 01:19:48;;;;;;;82.97;40.80;;;;;;;1.45;92.08;97730.31;5018619;28;20064;-82
2023/12/23 01:22:34;;;;;;;96.43;43.97;;;;;;;1.38;91.69;97715.44;5033666;28;20060;-84
2023/12/23 01:25:22;;;;;;;75.00;37.78;;;;;;;1.39;91.71;97732.75;5025623;28;20048;-83
2023/12/23 01:28:07;;;;;;;83.05;39.28;;;;;;;1.33;91.92;97730.94;5005423;28;20387;-87
2023/12/23 01:30:52;;;;;;;106.72;44.42;;;;;;;1.27;91.64;97728.34;5033251;28;20056;-83
2023/12/23 01:33:38;;;;;;;80.03;39.03;;;;;;;1.26;91.61;97719.69;5018762;28;20045;-83
2023/12/23 01:36:24;;;;;;;76.38;37.47;;;;;;;1.24;91.63;97713.88;5018813;28;20117;-87
2023/12/23 01:39:09;;;;;;;76.82;37.47;;;;;;;1.22;92.06;97702.78;5004911;28;20411;-84
2023/12/23 01:41:54;;;;;;;80.93;36.33;;;;;;;1.20;91.62;97707.44;5032898;28;20057;-84
2023/12/23 01:44:40;;;;;;;73.53;36.33;;;;;;;1.24;91.59;97687.69;5033480;28;20060;-83
2023/12/23 01:47:25;;;;;;;77.25;35.75;;;;;;;1.27;91.94;97697.75;5033497;28;20060;-84
2023/12/23 01:50:11;;;;;;;71.90;34.47;;;;;;;1.28;91.81;97678.41;5011349;28;20048;-86
2023/12/23 01:52:57;;;;;;;72.35;37.33;;;;;;;1.29;92.23;97671.38;5011514;28;20056;-88
2023/12/23 01:56:18;;;;;;;72.00;36.22;;;;;;;1.29;91.29;97674.78;5018287;28;20060;-87
2023/12/23 01:59:04;;;;;;;73.60;35.65;;;;;;;1.30;91.58;97686.88;5013783;28;20395;-83
2023/12/23 02:02:05;;;;;;;73.03;35.28;;;;;;;1.27;92.40;97682.03;5019001;28;20347;-86
2023/12/23 02:04:57;;;;;;;87.82;37.60;;;;;;;1.27;91.59;97676.81;5019945;28;20049;-88
2023/12/23 02:07:46;;;;;;;74.97;34.90;;;;;;;1.24;91.76;97674.59;5005404;28;20506;-83
2023/12/23 02:10:33;;;;;;;72.18;33.42;;;;;;;1.30;91.54;97676.41;5010984;28;20394;-83
2023/12/23 02:13:26;;;;;;;62.47;31.83;;;;;;;1.32;92.00;97678.81;5004638;28;20068;-83
2023/12/23 02:16:11;;;;;;;46.72;25.67;;;;;;;1.26;92.29;97697.97;5020727;28;20040;-83
2023/12/23 02:18:56;;;;;;;53.92;29.27;;;;;;;1.30;91.77;97686.88;5034722;28;20498;-85
2023/12/23 02:21:43;;;;;;;60.38;31.98;;;;;;;1.33;91.52;97675.97;5018306;28;20052;-84
2023/12/23 02:24:28;;;;;;;68.90;35.20;;;;;;;1.37;91.40;97661.47;5011024;28;20060;-83
2023/12/23 02:27:18;;;;;;;52.00;28.33;;;;;;;1.39;91.20;97683.00;5024510;28;20072;-84
2023/12/23 02:30:05;;;;;;;55.50;29.52;;;;;;;1.42;91.45;97697.50;5010962;28;20052;-84
2023/12/23 02:32:50;;;;;;;61.22;33.25;;;;;;;1.48;90.91;97703.72;5024801;28;20052;-85
2023/12/23 02:35:36;;;;;;;72.93;36.13;;;;;;;1.52;91.62;97689.19;5018035;28;20550;-87
2023/12/23 02:38:22;;;;;;;74.97;38.67;;;;;;;1.52;91.25;97678.72;5032858;28;20041;-83
2023/12/23 02:41:08;;;;;;;67.35;34.28;;;;;;;1.52;91.15;97674.28;5024245;28;20052;-84
2023/12/23 02:43:53;;;;;;;93.18;43.92;;;;;;;1.59;91.07;97701.22;5024341;28;20044;-83
2023/12/23 02:46:39;;;;;;;76.85;36.85;;;;;;;1.57;90.95;97692.78;5021202;28;20064;-83
2023/12/23 02:49:25;;;;;;;138.95;64.18;;;;;;;1.55;90.09;97686.16;5036335;28;20044;-86
2023/12/23 02:52:10;;;;;;;74.28;39.75;;;;;;;1.41;90.54;97687.22;5037599;28;20411;-87
2023/12/23 02:54:58;;;;;;;63.67;33.53;;;;;;;1.33;91.68;97678.59;5024890;28;20052;-85
2023/12/23 02:57:44;;;;;;;59.00;32.05;;;;;;;1.23;91.22;97688.72;5037660;28;20053;-87
2023/12/23 03:00:29;;;;;;;53.08;29.83;;;;;;;1.27;91.57;97679.44;5023619;28;20056;-83
2023/12/23 03:03:16;;;;;;;58.92;32.63;;;;;;;1.26;91.80;97682.25;5030952;28;20052;-82
2023/12/23 03:06:01;;;;;;;53.63;27.77;;;;;;;1.23;90.92;97672.22;5030657;28;20052;-88
2023/12/23 03:08:46;;;;;;;46.13;27.38;;;;;;;1.26;91.18;97679.66;5034047;28;20056;-86
2023/12/23 03:11:31;;;;;;;53.95;29.05;;;;;;;1.28;91.51;97693.31;5031773;28;20064;-83
2023/12/23 03:14:18;;;;;;;55.42;30.30;;;;;;;1.27;92.02;97686.47;5032118;28;20061;-83
2023/12/23 03:17:04;;;;;;;55.03;30.52;;;;;;;1.27;91.54;97679.44;5031890;28;20048;-86
2023/12/23 03:19:49;;;;;;;47.80;27.35;;;;;;;1.29;91.59;97694.94;5016450;28;20068;-82
2023/12/23 03:22:35;;;;;;;65.53;34.15;;;;;;;1.24;91.83;97710.44;5031761;28;20060;-86
2023/12/23 03:25:20;;;;;;;69.07;35.75;;;;;;;1.28;92.09;97704.56;5031891;28;20065;-85
2023/12/23 03:28:06;;;;;;;76.93;39.63;;;;;;;1.25;91.33;97715.47;5031587;28;20057;-87
2023/12/23 03:30:51;;;;;;;143.77;64.47;;;;;;;1.25;91.41;97704.19;5017001;28;20056;-86
2023/12/23 03:33:39;;;;;;;92.22;42.47;;;;;;;1.24;91.84;97716.47;5023724;28;20049;-86
2023/12/23 03:36:27;;;;;;;67.65;34.92;;;;;;;1.26;92.22;97729.38;5031738;28;20048;-83
2023/12/23 03:39:12;;;;;;;86.55;41.58;;;;;;;1.34;91.81;97719.44;5023013;28;20371;-89
2023/12/23 03:41:57;;;;;;;72.45;38.55;;;;;;;1.29;91.22;97713.25;5016681;28;20068;-82
2023/12/23 03:44:42;;;;;;;63.75;34.42;;;;;;;1.26;91.97;97726.75;5023708;28;20060;-86
2023/12/23 03:47:28;;;;;;;54.13;30.98;;;;;;;1.28;92.11;97704.56;5016200;28;20052;-83
2023/12/23 03:50:13;;;;;;;64.28;34.70;;;;;;;1.29;91.65;97716.66;5023424;28;20060;-86
2023/12/23 03:52:59;;;;;;;78.22;38.30;;;;;;;1.28;91.44;97725.50;5023422;28;20072;-86
2023/12/23 03:55:45;;;;;;;94.40;46.90;;;;;;;1.30;92.18;97722.72;5031682;28;20056;-88
2023/12/23 03:58:31;;;;;;;95.95;47.47;;;;;;;1.33;91.75;97738.78;5016953;28;20048;-82
2023/12/23 04:01:17;;;;;;;94.00;48.15;;;;;;;1.36;92.35;97738.38;5030986;28;20048;-86
2023/12/23 04:04:03;;;;;;;101.28;47.58;;;;;;;1.42;91.94;97728.91;5016753;28;20052;-82
2023/12/23 04:06:49;;;;;;;89.32;43.50;;;;;;;1.41;91.86;97740.41;5031366;28;20053;-83
2023/12/23 04:09:35;;;;;;;83.93;41.33;;;;;;;1.39;91.78;97745.81;5016827;28;20090;-83
2023/12/23 04:12:20;;;;;;;82.45;42.20;;;;;;;1.36;92.48;97735.75;5022965;28;20041;-85
2023/12/23 04:15:07;;;;;;;86.78;43.45;;;;;;;1.34;92.17;97716.84;5023179;28;20061;-86
2023/12/23 04:17:52;;;;;;;95.55;43.13;;;;;;;1.32;92.49;97726.72;5023218;28;20534;-82
2023/12/23 04:20:38;;;;;;;95.35;45.20;;;;;;;1.39;92.35;97745.81;5022774;28;20498;-86
2023/12/23 04:23:24;;;;;;;86.80;42.92;;;;;;;1.41;91.72;97757.91;5016521;28;20052;-82
2023/12/23 04:26:10;;;;;;;83.60;41.63;;;;;;;1.43;92.33;97748.81;5023116;28;20053;-85
2023/12/23 04:28:56;;;;;;;78.85;40.90;;;;;;;1.50;91.58;97743.56;5023093;28;20053;-85
2023/12/23 04:31:41;;;;;;;96.38;45.17;;;;;;;1.47;92.38;97751.84;5024721;28;20060;-83
2023/12/23 04:34:27;;;;;;;81.13;40.58;;;;;;;1.45;91.65;97753.88;5026738;28;20406;-85
2023/12/23 04:37:12;;;;;;;81.55;41.28;;;;;;;1.46;92.13;97773.78;5026670;28;20052;-84
2023/12/23 04:39:57;;;;;;;78.72;39.38;;;;;;;1.43;92.08;97789.91;5026340;28;20049;-86
2023/12/23 04:42:43;;;;;;;78.82;39.35;;;;;;;1.48;91.84;97784.88;5026652;28;20056;-83
2023/12/23 04:45:28;;;;;;;74.22;37.00;;;;;;;1.53;92.00;97790.28;5012814;28;20068;-86
2023/12/23 04:48:14;;;;;;;68.35;35.47;;;;;;;1.54;91.75;97776.19;5034672;28;20052;-86
2023/12/23 04:51:00;;;;;;;66.57;35.45;;;;;;;1.54;91.54;97799.75;5026719;28;20411;-83
2023/12/23 04:53:45;;;;;;;61.42;34.22;;;;;;;1.53;91.96;97796.31;5027017;28;20064;-86
2023/12/23 04:56:31;;;;;;;68.18;35.58;;;;;;;1.44;91.96;97804.59;5014102;28;20125;-87
2023/12/23 04:59:16;;;;;;;64.50;33.08;;;;;;;1.45;91.39;97833.22;5031590;28;20052;-85
2023/12/23 05:02:03;;;;;;;65.57;34.47;;;;;;;1.48;91.38;97829.38;5028400;28;20041;-83
2023/12/23 05:04:49;;;;;;;64.60;34.65;;;;;;;1.53;91.77;97821.69;5030246;28;20056;-83
2023/12/23 05:07:34;;;;;;;61.25;31.45;;;;;;;1.58;91.78;97855.94;5027635;28;20399;-83
2023/12/23 05:10:20;;;;;;;59.55;32.33;;;;;;;1.62;91.35;97816.03;5035947;28;20510;-87
2023/12/23 05:13:05;;;;;;;64.07;33.03;;;;;;;1.68;91.20;97837.97;5027933;28;20399;-86
2023/12/23 05:15:51;;;;;;;57.30;30.83;;;;;;;1.77;91.24;97862.94;5028062;28;20435;-87
2023/12/23 05:18:36;;;;;;;55.63;28.58;;;;;;;1.91;90.71;97917.91;5027772;28;20052;-84
2023/12/23 05:21:22;;;;;;;66.32;31.95;;;;;;;1.97;91.05;97924.94;5021233;28;20056;-82
2023/12/23 05:24:08;;;;;;;56.35;30.55;;;;;;;2.00;90.82;97900.94;5028515;28;20052;-86
2023/12/23 05:26:53;;;;;;;83.13;37.53;;;;;;;2.07;89.57;97907.00;5027529;28;20088;-82
2023/12/23 05:29:39;;;;;;;50.15;22.48;;;;;;;2.73;87.66;97953.09;5035953;28;20521;-85
2023/12/23 05:32:24;;;;;;;16.00;8.48;;;;;;;5.55;74.65;97939.06;5028535;28;20056;-83
2023/12/23 05:35:09;;;;;;;13.80;8.07;;;;;;;6.71;67.54;97962.91;5035890;28;20048;-80
2023/12/23 05:37:55;;;;;;;6.57;4.00;;;;;;;6.99;65.84;97979.75;5043161;28;20056;-81
2023/12/23 05:40:42;;;;;;;7.05;4.15;;;;;;;7.17;64.64;97990.94;5019174;28;20399;-83
2023/12/23 05:43:28;;;;;;;4.28;2.72;;;;;;;7.03;64.91;98039.03;5040285;28;20048;-83
2023/12/23 05:46:13;;;;;;;5.13;3.53;;;;;;;6.92;65.86;98053.84;5039518;28;20044;-83
2023/12/23 05:48:59;;;;;;;4.93;2.28;;;;;;;6.81;66.12;98052.06;5016620;28;20045;-84
2023/12/23 05:51:44;;;;;;;4.03;2.58;;;;;;;6.82;66.00;98059.75;5017405;28;20053;-81
2023/12/23 05:54:30;;;;;;;7.15;3.88;;;;;;;6.85;65.34;98051.34;5024035;28;20064;-84
2023/12/23 05:57:16;;;;;;;4.70;3.03;;;;;;;6.81;65.29;98063.44;5021560;28;20484;-81
2023/12/23 06:00:05;;;;;;;9.10;4.68;;;;;;;6.78;64.88;98082.38;5034820;28;20044;-83
2023/12/23 06:02:57;;;;;;;8.90;4.00;;;;;;;6.71;65.09;98079.88;5023455;28;20053;-81
2023/12/23 06:05:42;;;;;;;4.40;2.67;;;;;;;6.46;66.20;98103.88;5013053;28;20052;-82
2023/12/23 06:08:28;;;;;;;11.32;3.08;;;;;;;6.45;66.73;98139.22;5014178;28;20049;-84
2023/12/23 06:11:15;;;;;;;7.55;3.72;;;;;;;6.25;67.46;98178.31;5014185;28;20060;-85
2023/12/23 06:14:01;;;;;;;12.25;5.53;;;;;;;6.02;68.77;98195.72;5013818;28;20061;-86
2023/12/23 06:16:46;;;;;;;11.32;5.35;;;;;;;5.95;69.12;98202.09;5013682;28;20053;-85
2023/12/23 06:19:31;;;;;;;8.88;5.43;;;;;;;5.82;69.64;98208.34;5013954;28;20531;-88
2023/12/23 06:22:17;;;;;;;15.55;7.38;;;;;;;5.72;70.47;98229.16;4998771;28;20502;-88
2023/12/23 06:25:03;;;;;;;23.08;10.35;;;;;;;5.61;71.54;98253.63;4998902;28;20049;-85
2023/12/23 06:27:48;;;;;;;33.42;13.73;;;;;;;5.45;71.96;98268.19;4998434;28;20045;-87
2023/12/23 06:30:34;;;;;;;41.47;17.15;;;;;;;5.43;71.78;98273.69;5013389;28;20053;-84
2023/12/23 06:33:19;;;;;;;28.58;13.93;;;;;;;5.40;72.04;98289.13;5013830;28;20400;-87
2023/12/23 06:36:08;;;;;;;40.40;14.38;;;;;;;5.38;72.08;98313.06;5012953;28;20060;-83
2023/12/23 06:38:53;;;;;;;37.63;15.75;;;;;;;5.32;72.01;98313.94;5013213;28;20057;-86
2023/12/23 06:41:39;;;;;;;23.55;11.55;;;;;;;5.59;70.60;98318.94;4998172;28;20057;-85
2023/12/23 06:44:25;;;;;;;11.80;6.57;;;;;;;5.52;71.16;98329.56;5004480;28;20049;-82
2023/12/23 06:47:10;;;;;;;37.47;14.98;;;;;;;5.49;71.11;98301.81;5010044;28;20099;-82
2023/12/23 06:49:56;;;;;;;33.00;13.68;;;;;;;5.45;71.35;98305.91;5017776;28;20068;-86
2023/12/23 06:52:41;;;;;;;12.23;5.95;;;;;;;5.73;70.05;98330.94;5024401;28;20048;-87
2023/12/23 06:55:27;;;;;;;14.45;7.75;;;;;;;5.66;71.08;98327.56;5024371;28;20056;-87
2023/12/23 06:58:12;;;;;;;21.20;9.75;;;;;;;5.68;71.09;98323.69;5018379;28;20068;-86
2023/12/23 07:00:58;;;;;;;12.90;6.97;;;;;;;5.69;70.83;98338.47;5032670;28;20068;-88
2023/12/23 07:03:45;;;;;;;19.42;9.50;;;;;;;5.74;70.77;98343.13;5017091;28;20048;-83
2023/12/23 07:06:30;;;;;;;55.42;18.83;;;;;;;5.73;71.16;98362.56;5032247;28;20056;-83
2023/12/23 07:09:16;;;;;;;36.75;14.90;;;;;;;5.79;70.31;98351.16;5032004;28;20056;-83
2023/12/23 07:12:02;;;;;;;39.60;16.77;;;;;;;5.78;71.09;98378.56;5032158;28;20072;-87
2023/12/23 07:14:48;;;;;;;50.60;20.50;;;;;;;5.79;71.26;98398.63;5023366;28;20060;-86
2023/12/23 07:17:33;;;;;;;93.65;30.70;;;;;;;5.77;71.48;98411.22;5034083;28;20474;-86
2023/12/23 07:20:19;;;;;;;45.47;18.73;;;;;;;5.85;71.01;98425.94;5033132;28;20044;-87
2023/12/23 07:23:04;;;;;;;59.35;26.58;;;;;;;5.82;71.40;98424.53;5031986;28;20064;-88
2023/12/23 07:25:49;;;;;;;46.88;19.10;;;;;;;5.83;72.26;98430.63;5032357;28;20052;-83
2023/12/23 07:28:35;;;;;;;127.32;47.65;;;;;;;5.75;71.91;98437.00;5031945;28;20068;-85
2023/12/23 07:31:20;;;;;;;37.05;17.90;;;;;;;5.74;72.70;98456.47;5032585;28;20045;-87
2023/12/23 07:34:09;;;;;;;25.73;12.65;;;;;;;5.79;72.55;98473.25;5024574;28;20056;-89
2023/12/23 07:36:55;;;;;;;22.10;10.77;;;;;;;5.86;71.88;98485.56;5032817;28;20052;-83
2023/12/23 07:39:40;;;;;;;23.63;13.63;;;;;;;5.93;71.76;98481.09;5017470;28;20064;-84
2023/12/23 07:42:26;;;;;;;20.95;11.48;;;;;;;6.05;70.79;98497.81;5017994;28;20120;-87
2023/12/23 07:45:11;;;;;;;19.88;10.98;;;;;;;6.19;69.84;98503.75;5032615;28;20048;-85
2023/12/23 07:47:57;;;;;;;18.23;10.32;;;;;;;6.20;69.15;98500.06;5032218;28;20057;-87
2023/12/23 07:50:42;;;;;;;20.60;12.27;;;;;;;6.17;70.40;98513.69;5032892;28;20072;-83
2023/12/23 07:53:28;;;;;;;16.95;11.02;;;;;;;6.06;70.82;98522.34;5032826;28;20068;-87
2023/12/23 07:56:14;;;;;;;23.33;14.10;;;;;;;5.98;72.04;98533.97;5025291;28;20371;-84
2023/12/23 07:58:59;;;;;;;9.35;5.10;;;;;;;6.38;68.23;98552.06;5026245;28;20044;-83
2023/12/23 08:01:45;;;;;;;6.45;2.88;;;;;;;6.54;67.13;98543.56;5012403;28;20064;-84
2023/12/23 08:04:31;;;;;;;8.52;5.05;;;;;;;6.46;68.20;98557.06;5034460;28;20052;-83
2023/12/23 08:07:16;;;;;;;10.60;6.32;;;;;;;6.36;69.01;98567.31;5006557;28;20044;-84
2023/12/23 08:10:02;;;;;;;18.13;8.75;;;;;;;6.30;69.50;98561.09;5037101;28;20140;-84
2023/12/23 08:12:48;;;;;;;18.30;8.23;;;;;;;6.23;69.95;98565.59;5028137;28;20057;-84
2023/12/23 08:15:34;;;;;;;13.95;8.82;;;;;;;6.20;70.33;98571.31;5037280;28;20395;-86
2023/12/23 08:18:20;;;;;;;20.13;10.68;;;;;;;6.18;70.49;98561.00;5035268;28;20057;-86
2023/12/23 08:21:07;;;;;;;14.77;8.05;;;;;;;6.29;69.34;98575.28;5015747;28;20398;-90
2023/12/23 08:23:53;;;;;;;37.25;21.08;;;;;;;6.28;69.66;98602.72;5014886;28;20056;-81
2023/12/23 08:26:39;;;;;;;28.35;18.50;;;;;;;6.33;69.75;98615.25;5036654;28;20510;-84
2023/12/23 08:29:25;;;;;;;33.75;17.00;;;;;;;6.25;70.66;98624.25;5008847;28;20569;-86
2023/12/23 08:32:10;;;;;;;22.48;14.13;;;;;;;6.20;71.10;98638.06;5028193;28;20509;-83
2023/12/23 08:34:56;;;;;;;30.70;17.98;;;;;;;6.16;71.27;98647.44;5036583;28;20048;-84
2023/12/23 08:37:41;;;;;;;16.23;9.88;;;;;;;6.30;70.30;98640.25;5028163;28;20052;-85
2023/12/23 08:40:27;;;;;;;18.67;10.85;;;;;;;6.24;69.71;98634.00;5044457;28;20044;-84
2023/12/23 08:43:13;;;;;;;17.95;9.75;;;;;;;6.24;70.04;98618.16;5035204;28;20048;-88
2023/12/23 08:46:01;;;;;;;13.63;8.43;;;;;;;6.24;70.43;98612.09;5040801;28;20049;-78
2023/12/23 08:48:47;;;;;;;18.00;9.65;;;;;;;6.29;70.43;98628.06;5021181;28;20053;-82
2023/12/23 08:51:34;;;;;;;42.70;22.48;;;;;;;6.40;69.63;98651.13;5036345;28;20064;-80
2023/12/23 08:54:19;;;;;;;36.47;17.73;;;;;;;6.44;69.12;98649.66;5035567;28;20048;-78
2023/12/23 08:57:05;;;;;;;21.85;10.05;;;;;;;6.47;68.41;98657.13;5042975;28;20450;-80
2023/12/23 08:59:50;;;;;;;16.60;9.82;;;;;;;6.55;68.14;98657.88;5037058;28;20387;-79
2023/12/23 09:02:36;;;;;;;17.48;9.50;;;;;;;6.58;67.62;98660.09;5036275;28;20057;-81
2023/12/23 09:05:21;;;;;;;19.08;9.82;;;;;;;6.58;67.64;98660.09;5036205;28;20056;-82
2023/12/23 09:08:09;;;;;;;18.38;6.43;;;;;;;6.55;67.53;98657.88;5035066;28;20045;-82
2023/12/23 09:10:55;;;;;;;17.13;7.63;;;;;;;6.62;66.81;98664.72;5035499;28;20052;-83
2023/12/23 09:13:40;;;;;;;18.25;8.82;;;;;;;6.67;66.93;98670.16;5035629;28;20052;-80
2023/12/23 09:16:26;;;;;;;10.02;5.20;;;;;;;6.79;66.08;98669.44;5020239;28;20053;-83
2023/12/23 09:19:11;;;;;;;24.45;10.70;;;;;;;6.72;66.45;98680.06;5019000;28;20414;-79
2023/12/23 09:21:57;;;;;;;14.93;7.32;;;;;;;6.73;66.30;98692.25;5035030;28;20048;-80
2023/12/23 09:24:45;;;;;;;17.60;9.23;;;;;;;6.67;65.97;98693.13;5035333;28;20052;-80
2023/12/23 09:27:31;;;;;;;7.50;4.60;;;;;;;6.70;64.64;98684.75;5034981;28;20502;-80
2023/12/23 09:30:18;;;;;;;10.02;4.25;;;;;;;6.62;64.89;98703.53;5035388;28;20335;-80
2023/12/23 09:33:05;;;;;;;7.25;3.05;;;;;;;6.65;64.44;98713.66;5041695;28;20064;-83
2023/12/23 09:35:51;;;;;;;10.77;5.57;;;;;;;6.56;65.79;98715.75;5035130;28;20052;-84
2023/12/23 09:38:36;;;;;;;3.72;2.70;;;;;;;6.60;64.63;98709.00;5034819;28;20053;-81
2023/12/23 09:41:22;;;;;;;10.65;5.97;;;;;;;6.60;64.80;98701.09;5034905;28;20502;-83
2023/12/23 09:44:08;;;;;;;14.02;7.97;;;;;;;6.63;65.30;98705.94;5034603;28;20052;-84
2023/12/23 09:46:53;;;;;;;18.90;11.05;;;;;;;6.59;65.39;98714.53;5034205;28;20498;-81
2023/12/23 09:49:39;;;;;;;15.90;5.55;;;;;;;6.57;64.75;98727.94;5035011;28;20053;-84
2023/12/23 09:52:24;;;;;;;7.40;4.25;;;;;;;6.59;64.21;98720.63;5019934;28;20068;-80
2023/12/23 09:55:09;;;;;;;12.05;6.05;;;;;;;6.59;64.39;98717.16;5033867;28;20052;-82
2023/12/23 09:57:56;;;;;;;13.88;5.63;;;;;;;6.57;64.56;98720.00;5019906;28;20470;-83
2023/12/23 10:00:45;;;;;;;11.65;6.00;;;;;;;6.53;64.84;98700.34;5006320;28;20091;-81
2023/12/23 10:03:30;;;;;;;8.13;3.55;;;;;;;6.56;64.47;98709.69;5034249;28;20053;-83
2023/12/23 10:06:18;;;;;;;6.93;2.97;;;;;;;6.54;64.57;98707.25;5034034;28;20048;-82
2023/12/23 10:09:04;;;;;;;7.20;2.92;;;;;;;6.56;64.53;98713.13;5033845;28;20048;-86
2023/12/23 10:11:50;;;;;;;9.75;4.70;;;;;;;6.57;65.14;98706.00;5024605;28;20053;-81
2023/12/23 10:14:41;;;;;;;12.00;6.50;;;;;;;6.55;65.51;98697.47;5042774;28;20052;-79
2023/12/23 10:17:27;;;;;;;35.03;13.60;;;;;;;6.58;65.87;98700.53;5040121;28;20545;-78
2023/12/23 10:20:15;;;;;;;17.27;8.10;;;;;;;6.56;65.45;98693.84;5041062;28;20056;-81
2023/12/23 10:23:01;;;;;;;18.85;7.75;;;;;;;6.60;65.57;98679.97;5039739;28;20502;-81
2023/12/23 10:25:47;;;;;;;26.02;11.20;;;;;;;6.65;65.99;98685.44;5041622;28;20056;-81
2023/12/23 10:28:35;;;;;;;13.07;5.85;;;;;;;6.68;65.20;98692.09;5039313;28;20049;-80
2023/12/23 10:31:21;;;;;;;5.95;3.05;;;;;;;6.71;64.55;98697.75;5039003;28;20054;-81
2023/12/23 10:34:11;;;;;;;5.05;2.47;;;;;;;6.72;64.78;98706.47;5040280;28;20072;-82
2023/12/23 10:36:58;;;;;;;5.30;2.70;;;;;;;6.71;64.26;98707.50;5038184;28;20124;-82
2023/12/23 10:40:02;;;;;;;3.17;2.00;;;;;;;6.73;63.55;98686.97;5039128;28;20065;-79
2023/12/23 10:42:49;;;;;;;6.22;3.40;;;;;;;6.75;64.58;98671.72;5032102;28;20056;-82
2023/12/23 10:45:35;;;;;;;12.60;5.18;;;;;;;6.76;65.23;98662.75;5037958;28;20044;-79
2023/12/23 10:48:20;;;;;;;6.82;3.55;;;;;;;6.80;64.18;98663.97;5017148;28;20059;-81
2023/12/23 10:51:06;;;;;;;7.15;3.95;;;;;;;6.84;64.68;98654.56;5017890;28;20052;-79
2023/12/23 10:53:54;;;;;;;24.98;9.05;;;;;;;6.84;64.79;98644.00;5018123;28;20387;-80
2023/12/23 10:56:39;;;;;;;4.25;2.47;;;;;;;6.80;64.31;98644.63;5033352;28;20498;-79
2023/12/23 10:59:25;;;;;;;3.28;1.92;;;;;;;6.80;64.85;98637.56;5018194;28;20048;-83
2023/12/23 11:02:15;;;;;;;8.05;3.72;;;;;;;6.78;65.49;98634.31;5032309;28;20052;-79
2023/12/23 11:05:06;;;;;;;3.33;1.77;;;;;;;6.76;64.34;98627.63;5032138;28;20044;-81
2023/12/23 11:07:54;;;;;;;6.35;3.05;;;;;;;6.75;64.84;98629.47;5017908;28;20064;-79
2023/12/23 11:10:40;;;;;;;4.57;2.72;;;;;;;6.69;64.66;98631.16;5031828;28;20052;-78
2023/12/23 11:13:26;;;;;;;7.82;3.28;;;;;;;6.67;64.97;98641.09;5039519;28;20064;-81
2023/12/23 11:16:12;;;;;;;11.45;5.13;;;;;;;6.68;66.10;98647.22;5032711;28;20052;-80
2023/12/23 11:18:59;;;;;;;7.00;3.72;;;;;;;6.66;65.10;98646.63;5033237;28;20049;-79
2023/12/23 11:21:45;;;;;;;3.63;2.42;;;;;;;6.61;65.15;98659.66;5033074;28;20060;-80
2023/12/23 11:24:36;;;;;;;5.38;2.40;;;;;;;6.57;65.20;98676.97;5038772;28;20076;-81
2023/12/23 11:27:35;;;;;;;11.75;5.43;;;;;;;6.52;65.61;98674.16;5039395;28;20048;-81
2023/12/23 11:30:20;;;;;;;10.27;4.93;;;;;;;6.48;66.50;98671.94;5032578;28;20041;-79
2023/12/23 11:33:07;;;;;;;7.70;3.72;;;;;;;6.42;66.67;98661.44;5032574;28;20044;-82
2023/12/23 11:35:56;;;;;;;16.42;6.95;;;;;;;6.45;67.04;98666.28;5032191;28;20047;-79
2023/12/23 11:38:50;;;;;;;12.77;7.05;;;;;;;6.45;67.28;98661.81;5024207;28;20044;-79
2023/12/23 11:41:35;;;;;;;7.70;3.88;;;;;;;6.43;66.95;98660.44;5032759;28;20060;-83
2023/12/23 11:44:20;;;;;;;13.57;6.20;;;;;;;6.43;66.84;98655.97;5022932;28;20048;-85
2023/12/23 11:47:08;;;;;;;10.43;6.35;;;;;;;6.42;66.33;98650.88;5023477;28;20056;-86
2023/12/23 11:49:57;;;;;;;15.68;6.50;;;;;;;6.42;66.16;98654.34;5036716;28;20048;-84
2023/12/23 11:52:44;;;;;;;11.50;5.78;;;;;;;6.41;65.97;98651.94;5042361;28;20395;-82
2023/12/23 11:55:31;;;;;;;11.93;6.10;;;;;;;6.40;66.21;98653.75;5034709;28;20541;-83
2023/12/23 11:58:16;;;;;;;21.55;11.20;;;;;;;6.42;66.27;98658.81;5021530;28;20543;-83
2023/12/23 12:01:02;;;;;;;13.98;7.00;;;;;;;6.42;66.01;98651.69;5036479;28;20044;-84
2023/12/23 12:03:48;;;;;;;11.90;5.07;;;;;;;6.42;65.81;98654.34;5043684;28;20056;-79
2023/12/23 12:06:33;;;;;;;7.32;4.88;;;;;;;6.33;66.48;98645.09;5045660;28;20512;-79
2023/12/23 12:09:19;;;;;;;5.13;2.55;;;;;;;6.45;64.45;98642.53;5047746;28;20147;-80
2023/12/23 12:12:05;;;;;;;13.73;5.70;;;;;;;6.39;65.76;98638.97;5037389;28;20044;-79
2023/12/23 12:14:50;;;;;;;9.35;5.30;;;;;;;6.37;65.31;98646.28;5023785;28;20048;-83
2023/12/23 12:17:35;;;;;;;8.98;5.40;;;;;;;6.33;64.92;98641.63;5031866;28;20426;-82
2023/12/23 12:20:22;;;;;;;11.63;3.00;;;;;;;6.24;64.95;98643.75;5017369;28;20068;-81
2023/12/23 12:23:07;;;;;;;19.65;8.48;;;;;;;6.15;66.08;98651.13;5031638;28;20391;-78
2023/12/23 12:25:57;;;;;;;13.27;7.28;;;;;;;6.13;66.58;98668.19;5010222;28;20060;-79
2023/12/23 12:28:43;;;;;;;23.95;11.38;;;;;;;6.13;66.63;98668.19;5031586;28;20050;-80
2023/12/23 12:31:29;;;;;;;18.52;9.23;;;;;;;6.17;66.31;98672.00;5033482;28;20097;-81
2023/12/23 12:34:15;;;;;;;13.52;6.28;;;;;;;6.15;66.09;98668.78;5024844;28;20052;-81
2023/12/23 12:37:02;;;;;;;12.23;6.65;;;;;;;6.07;66.58;98671.69;5018437;28;20056;-79
2023/12/23 12:39:47;;;;;;;21.58;10.00;;;;;;;6.02;67.06;98677.59;5018838;28;20056;-80
2023/12/23 12:42:35;;;;;;;22.02;10.02;;;;;;;6.00;67.11;98674.38;5024848;28;20040;-81
2023/12/23 12:45:23;;;;;;;13.77;5.00;;;;;;;5.95;67.41;98688.16;5035219;28;20049;-83
2023/12/23 12:48:10;;;;;;;12.98;4.25;;;;;;;5.96;67.00;98687.19;5041801;28;20057;-82
2023/12/23 12:50:55;;;;;;;6.95;4.35;;;;;;;5.93;67.10;98674.41;5042227;28;20056;-82
2023/12/23 12:53:41;;;;;;;15.25;4.70;;;;;;;5.95;66.57;98672.34;5041159;28;20048;-79
2023/12/23 12:56:28;;;;;;;13.13;7.85;;;;;;;5.90;69.89;98680.06;5038444;28;20048;-81
2023/12/23 12:59:17;;;;;;;25.35;11.68;;;;;;;5.78;70.63;98682.56;5039725;28;20053;-81